createdAt,value
2017-04-23T00:00:23.872Z,0
2017-04-23T00:01:24.170Z,0
2017-04-23T00:02:24.165Z,0
2017-04-23T00:03:23.826Z,0
2017-04-23T00:04:24.127Z,0
2017-04-23T00:05:23.791Z,0
2017-04-23T00:06:23.772Z,0
2017-04-23T00:07:24.083Z,0
2017-04-23T00:08:23.749Z,0
2017-04-23T00:09:23.734Z,0
2017-04-23T00:10:24.030Z,0
2017-04-23T00:11:24.019Z,0
2017-04-23T00:12:23.687Z,0
2017-04-23T00:13:23.982Z,0
2017-04-23T00:14:23.654Z,0
2017-04-23T00:15:23.953Z,0
2017-04-23T00:16:23.936Z,0
2017-04-23T00:17:23.925Z,0
2017-04-23T00:18:23.917Z,0
2017-04-23T00:19:23.898Z,0
2017-04-23T00:20:23.880Z,0
2017-04-23T00:21:23.865Z,0
2017-04-23T00:22:23.843Z,0
2017-04-23T00:23:23.206Z,0
2017-04-23T00:24:23.828Z,0
2017-04-23T00:25:23.179Z,0
2017-04-23T00:26:23.803Z,0
2017-04-23T00:27:23.456Z,0
2017-04-23T00:28:23.453Z,0
2017-04-23T00:29:23.741Z,0
2017-04-23T00:30:23.728Z,0
2017-04-23T00:31:23.404Z,0
2017-04-23T00:32:23.704Z,0
2017-04-23T00:33:23.368Z,0
2017-04-23T00:34:23.671Z,0
2017-04-23T00:35:23.652Z,0
2017-04-23T00:36:23.325Z,0
2017-04-23T00:37:23.308Z,0
2017-04-23T00:38:23.293Z,0
2017-04-23T00:39:23.271Z,0
2017-04-23T00:40:23.577Z,0
2017-04-23T00:41:23.261Z,0
2017-04-23T00:42:23.225Z,0
2017-04-23T00:43:23.531Z,0
2017-04-23T00:44:23.513Z,0
2017-04-23T00:45:23.192Z,0
2017-04-23T00:46:23.491Z,0
2017-04-23T00:47:23.471Z,0
2017-04-23T00:48:23.140Z,0
2017-04-23T00:49:23.461Z,0
2017-04-23T00:50:23.422Z,0
2017-04-23T00:51:23.411Z,0
2017-04-23T00:52:23.082Z,0
2017-04-23T00:53:23.065Z,0
2017-04-23T00:54:23.052Z,0
2017-04-23T00:55:23.034Z,0
2017-04-23T00:56:23.330Z,0
2017-04-23T00:57:23.315Z,0
2017-04-23T00:58:22.355Z,0
2017-04-23T00:59:22.656Z,0
2017-04-23T01:00:22.961Z,0
2017-04-23T01:01:23.263Z,0
2017-04-23T01:02:22.923Z,0
2017-04-23T01:03:22.919Z,0
2017-04-23T01:04:22.894Z,0
2017-04-23T01:05:23.197Z,0
2017-04-23T01:06:23.178Z,0
2017-04-23T01:07:23.170Z,0
2017-04-23T01:08:23.158Z,0
2017-04-23T01:09:23.136Z,0
2017-04-23T01:10:22.813Z,0
2017-04-23T01:11:23.102Z,0
2017-04-23T01:12:23.086Z,0
2017-04-23T01:13:22.762Z,0
2017-04-23T01:14:23.066Z,0
2017-04-23T01:15:23.038Z,0
2017-04-23T01:16:22.712Z,0
2017-04-23T01:17:22.690Z,0
2017-04-23T01:18:22.686Z,0
2017-04-23T01:19:22.979Z,0
2017-04-23T01:20:22.653Z,0
2017-04-23T01:21:22.631Z,0
2017-04-23T01:22:22.307Z,0
2017-04-23T01:23:22.609Z,0
2017-04-23T01:24:22.900Z,0
2017-04-23T01:25:22.571Z,0
2017-04-23T01:26:22.872Z,0
2017-04-23T01:27:22.550Z,0
2017-04-23T01:28:22.528Z,0
2017-04-23T01:29:22.195Z,0
2017-04-23T01:30:22.810Z,0
2017-04-23T01:31:22.790Z,0
2017-04-23T01:32:22.778Z,0
2017-04-23T01:33:22.763Z,0
2017-04-23T01:34:22.438Z,0
2017-04-23T01:35:22.732Z,0
2017-04-23T01:36:21.716Z,0
2017-04-23T01:37:21.675Z,0
2017-04-23T01:38:21.696Z,0
2017-04-23T01:39:22.250Z,0
2017-04-23T01:40:22.160Z,0
2017-04-23T01:41:22.645Z,0
2017-04-23T01:42:21.994Z,0
2017-04-23T01:43:22.297Z,0
2017-04-23T01:44:22.597Z,0
2017-04-23T01:45:22.578Z,0
2017-04-23T01:46:22.562Z,0
2017-04-23T01:47:22.236Z,0
2017-04-23T01:48:22.211Z,0
2017-04-23T01:49:21.889Z,0
2017-04-23T01:50:22.507Z,0
2017-04-23T01:51:22.169Z,0
2017-04-23T01:52:22.156Z,0
2017-04-23T01:53:22.454Z,0
2017-04-23T01:54:22.129Z,0
2017-04-23T01:55:21.792Z,0
2017-04-23T01:56:22.412Z,0
2017-04-23T01:57:22.396Z,0
2017-04-23T01:58:22.373Z,0
2017-04-23T01:59:22.363Z,0
2017-04-23T02:00:22.339Z,0
2017-04-23T02:01:22.329Z,0
2017-04-23T02:02:21.997Z,0
2017-04-23T02:03:21.990Z,0
2017-04-23T02:04:21.971Z,0
2017-04-23T02:05:21.637Z,0
2017-04-23T02:06:22.251Z,0
2017-04-23T02:07:21.929Z,0
2017-04-23T02:08:21.910Z,0
2017-04-23T02:09:22.206Z,0
2017-04-23T02:10:21.871Z,0
2017-04-23T02:11:21.543Z,0
2017-04-23T02:12:21.531Z,0
2017-04-23T02:13:22.144Z,0
2017-04-23T02:14:22.132Z,0
2017-04-23T02:15:21.794Z,0
2017-04-23T02:16:21.818Z,0
2017-04-23T02:17:22.072Z,0
2017-04-23T02:18:22.067Z,0
2017-04-23T02:19:21.737Z,0
2017-04-23T02:20:21.722Z,0
2017-04-23T02:21:21.714Z,0
2017-04-23T02:22:21.682Z,0
2017-04-23T02:23:21.998Z,0
2017-04-23T02:24:21.665Z,0
2017-04-23T02:25:21.647Z,0
2017-04-23T02:26:21.621Z,0
2017-04-23T02:27:21.925Z,0
2017-04-23T02:28:21.283Z,0
2017-04-23T02:29:21.895Z,0
2017-04-23T02:30:21.561Z,0
2017-04-23T02:31:21.552Z,0
2017-04-23T02:32:21.532Z,0
2017-04-23T02:33:21.526Z,0
2017-04-23T02:34:21.825Z,0
2017-04-23T02:35:21.502Z,0
2017-04-23T02:36:21.804Z,0
2017-04-23T02:37:21.474Z,0
2017-04-23T02:38:21.777Z,0
2017-04-23T02:39:21.440Z,0
2017-04-23T02:40:21.109Z,0
2017-04-23T02:41:21.410Z,0
2017-04-23T02:42:21.393Z,0
2017-04-23T02:43:21.064Z,0
2017-04-23T02:44:21.047Z,0
2017-04-23T02:45:21.036Z,0
2017-04-23T02:46:21.346Z,0
2017-04-23T02:47:20.999Z,0
2017-04-23T02:48:21.297Z,0
2017-04-23T02:49:21.594Z,0
2017-04-23T02:50:21.584Z,0
2017-04-23T02:51:21.568Z,0
2017-04-23T02:52:21.232Z,0
2017-04-23T02:53:20.903Z,0
2017-04-23T02:54:20.920Z,0
2017-04-23T02:55:21.499Z,0
2017-04-23T02:56:21.172Z,0
2017-04-23T02:57:21.469Z,0
2017-04-23T02:58:21.460Z,0
2017-04-23T02:59:21.452Z,0
2017-04-23T03:00:21.107Z,0
2017-04-23T03:01:21.095Z,0
2017-04-23T03:02:20.763Z,0
2017-04-23T03:03:21.375Z,0
2017-04-23T03:04:21.053Z,0
2017-04-23T03:05:21.062Z,0
2017-04-23T03:06:21.012Z,0
2017-04-23T03:07:21.316Z,0
2017-04-23T03:08:21.302Z,0
2017-04-23T03:09:21.286Z,0
2017-04-23T03:10:20.964Z,0
2017-04-23T03:11:21.264Z,0
2017-04-23T03:12:20.918Z,0
2017-04-23T03:13:20.905Z,0
2017-04-23T03:14:20.894Z,0
2017-04-23T03:15:21.185Z,0
2017-04-23T03:16:20.542Z,0
2017-04-23T03:17:21.152Z,0
2017-04-23T03:18:20.826Z,0
2017-04-23T03:19:20.504Z,0
2017-04-23T03:20:21.106Z,0
2017-04-23T03:21:20.465Z,0
2017-04-23T03:22:20.761Z,0
2017-04-23T03:23:20.757Z,0
2017-04-23T03:24:20.423Z,0
2017-04-23T03:25:21.029Z,0
2017-04-23T03:26:21.023Z,0
2017-04-23T03:27:20.370Z,0
2017-04-23T03:28:20.672Z,0
2017-04-23T03:29:20.970Z,0
2017-04-23T03:30:20.953Z,0
2017-04-23T03:31:20.617Z,0
2017-04-23T03:32:20.602Z,0
2017-04-23T03:33:20.608Z,0
2017-04-23T03:34:20.261Z,0
2017-04-23T03:35:20.868Z,0
2017-04-23T03:36:20.244Z,0
2017-04-23T03:37:20.527Z,0
2017-04-23T03:38:20.827Z,0
2017-04-23T03:39:20.812Z,0
2017-04-23T03:40:20.479Z,0
2017-04-23T03:41:20.465Z,0
2017-04-23T03:42:20.446Z,0
2017-04-23T03:43:20.743Z,0
2017-04-23T03:44:20.106Z,0
2017-04-23T03:45:20.403Z,0
2017-04-23T03:46:20.381Z,0
2017-04-23T03:47:20.691Z,0
2017-04-23T03:48:20.357Z,0
2017-04-23T03:49:20.657Z,0
2017-04-23T03:50:20.639Z,0
2017-04-23T03:51:20.304Z,0
2017-04-23T03:52:20.602Z,0
2017-04-23T03:53:20.591Z,0
2017-04-23T03:54:20.268Z,0
2017-04-23T03:55:19.930Z,0
2017-04-23T03:56:20.542Z,0
2017-04-23T03:57:20.212Z,0
2017-04-23T03:58:20.512Z,0
2017-04-23T03:59:20.500Z,0
2017-04-23T04:00:20.162Z,0
2017-04-23T04:01:20.462Z,0
2017-04-23T04:02:20.130Z,0
2017-04-23T04:03:20.436Z,0
2017-04-23T04:04:20.419Z,0
2017-04-23T04:05:20.082Z,0
2017-04-23T04:06:20.384Z,0
2017-04-23T04:07:20.055Z,0
2017-04-23T04:08:20.357Z,0
2017-04-23T04:09:19.709Z,0
2017-04-23T04:10:20.318Z,0
2017-04-23T04:11:20.304Z,0
2017-04-23T04:12:20.290Z,0
2017-04-23T04:13:20.276Z,0
2017-04-23T04:14:20.265Z,0
2017-04-23T04:15:20.242Z,0
2017-04-23T04:16:19.918Z,5
2017-04-23T04:17:19.893Z,5
2017-04-23T04:18:19.889Z,5
2017-04-23T04:19:19.868Z,5
2017-04-23T04:20:19.852Z,5
2017-04-23T04:21:20.154Z,5
2017-04-23T04:22:19.506Z,5
2017-04-23T04:23:20.125Z,10
2017-04-23T04:24:20.116Z,10
2017-04-23T04:25:20.086Z,10
2017-04-23T04:26:20.073Z,10
2017-04-23T04:27:20.057Z,10
2017-04-23T04:28:20.038Z,10
2017-04-23T04:29:19.717Z,10
2017-04-23T04:30:19.697Z,15
2017-04-23T04:31:19.360Z,15
2017-04-23T04:32:20.002Z,15
2017-04-23T04:33:19.973Z,15
2017-04-23T04:34:19.950Z,15
2017-04-23T04:35:19.621Z,15
2017-04-23T04:36:19.907Z,15
2017-04-23T04:37:19.598Z,20
2017-04-23T04:38:19.878Z,20
2017-04-23T04:39:19.550Z,25
2017-04-23T04:40:18.907Z,25
2017-04-23T04:41:19.523Z,30
2017-04-23T04:42:19.199Z,25
2017-04-23T04:43:19.808Z,25
2017-04-23T04:44:19.786Z,25
2017-04-23T04:45:19.137Z,25
2017-04-23T04:46:19.448Z,25
2017-04-23T04:47:19.106Z,30
2017-04-23T04:48:19.409Z,25
2017-04-23T04:49:19.405Z,25
2017-04-23T04:50:19.371Z,25
2017-04-23T04:51:19.675Z,30
2017-04-23T04:52:19.342Z,30
2017-04-23T04:53:19.353Z,30
2017-04-23T04:54:19.315Z,30
2017-04-23T04:55:19.293Z,30
2017-04-23T04:56:19.279Z,35
2017-04-23T04:57:19.591Z,35
2017-04-23T04:58:18.937Z,35
2017-04-23T04:59:19.232Z,35
2017-04-23T05:00:19.218Z,30
2017-04-23T05:01:19.200Z,30
2017-04-23T05:02:19.191Z,35
2017-04-23T05:03:19.171Z,35
2017-04-23T05:04:19.480Z,30
2017-04-23T05:05:19.456Z,30
2017-04-23T05:06:19.128Z,25
2017-04-23T05:07:19.108Z,25
2017-04-23T05:08:19.110Z,25
2017-04-23T05:09:19.083Z,25
2017-04-23T05:10:19.378Z,30
2017-04-23T05:11:19.045Z,30
2017-04-23T05:12:19.026Z,40
2017-04-23T05:13:19.327Z,40
2017-04-23T05:14:19.312Z,35
2017-04-23T05:15:18.981Z,35
2017-04-23T05:16:18.979Z,40
2017-04-23T05:17:18.948Z,40
2017-04-23T05:18:19.253Z,35
2017-04-23T05:19:19.234Z,40
2017-04-23T05:20:19.219Z,50
2017-04-23T05:21:18.884Z,55
2017-04-23T05:22:18.871Z,55
2017-04-23T05:23:19.176Z,55
2017-04-23T05:24:19.157Z,50
2017-04-23T05:25:19.141Z,50
2017-04-23T05:26:19.123Z,55
2017-04-23T05:27:18.792Z,70
2017-04-23T05:28:19.092Z,70
2017-04-23T05:29:18.762Z,65
2017-04-23T05:30:18.436Z,70
2017-04-23T05:31:18.732Z,70
2017-04-23T05:32:18.403Z,70
2017-04-23T05:33:18.702Z,75
2017-04-23T05:34:18.712Z,70
2017-04-23T05:35:18.355Z,65
2017-04-23T05:36:18.965Z,65
2017-04-23T05:37:18.953Z,70
2017-04-23T05:38:18.631Z,75
2017-04-23T05:39:18.610Z,75
2017-04-23T05:40:18.911Z,80
2017-04-23T05:41:18.579Z,80
2017-04-23T05:42:18.562Z,85
2017-04-23T05:43:17.913Z,85
2017-04-23T05:44:18.547Z,85
2017-04-23T05:45:18.517Z,85
2017-04-23T05:46:18.816Z,85
2017-04-23T05:47:18.491Z,85
2017-04-23T05:48:18.798Z,80
2017-04-23T05:49:18.781Z,85
2017-04-23T05:50:18.177Z,80
2017-04-23T05:51:18.736Z,70
2017-04-23T05:52:18.087Z,70
2017-04-23T05:53:18.075Z,80
2017-04-23T05:54:18.690Z,90
2017-04-23T05:55:18.357Z,90
2017-04-23T05:56:18.341Z,85
2017-04-23T05:57:18.641Z,85
2017-04-23T05:58:18.315Z,110
2017-04-23T05:59:18.300Z,115
2017-04-23T06:00:18.601Z,120
2017-04-23T06:01:18.580Z,125
2017-04-23T06:02:18.563Z,130
2017-04-23T06:03:18.557Z,140
2017-04-23T06:04:18.218Z,140
2017-04-23T06:05:18.203Z,140
2017-04-23T06:06:17.909Z,140
2017-04-23T06:07:18.487Z,140
2017-04-23T06:08:18.475Z,140
2017-04-23T06:09:18.150Z,150
2017-04-23T06:10:18.139Z,155
2017-04-23T06:11:18.113Z,160
2017-04-23T06:12:17.787Z,170
2017-04-23T06:13:18.082Z,170
2017-04-23T06:14:18.074Z,170
2017-04-23T06:15:18.366Z,165
2017-04-23T06:16:18.033Z,160
2017-04-23T06:17:18.025Z,155
2017-04-23T06:18:18.012Z,150
2017-04-23T06:19:18.308Z,150
2017-04-23T06:20:18.290Z,150
2017-04-23T06:21:18.275Z,160
2017-04-23T06:22:17.632Z,150
2017-04-23T06:23:17.618Z,145
2017-04-23T06:24:17.925Z,145
2017-04-23T06:25:17.906Z,145
2017-04-23T06:26:17.568Z,130
2017-04-23T06:27:18.191Z,125
2017-04-23T06:28:17.858Z,115
2017-04-23T06:29:18.162Z,90
2017-04-23T06:30:18.141Z,105
2017-04-23T06:31:18.125Z,125
2017-04-23T06:32:17.798Z,125
2017-04-23T06:33:17.472Z,115
2017-04-23T06:34:17.449Z,140
2017-04-23T06:35:18.061Z,155
2017-04-23T06:36:17.740Z,140
2017-04-23T06:37:17.411Z,140
2017-04-23T06:38:17.702Z,140
2017-04-23T06:39:18.014Z,155
2017-04-23T06:40:17.988Z,145
2017-04-23T06:41:17.976Z,115
2017-04-23T06:42:17.331Z,115
2017-04-23T06:43:17.636Z,145
2017-04-23T06:44:17.933Z,150
2017-04-23T06:45:17.610Z,130
2017-04-23T06:46:17.933Z,140
2017-04-23T06:47:17.571Z,155
2017-04-23T06:48:17.872Z,165
2017-04-23T06:49:17.860Z,200
2017-04-23T06:50:17.522Z,225
2017-04-23T06:51:17.512Z,225
2017-04-23T06:52:17.497Z,230
2017-04-23T06:53:17.485Z,230
2017-04-23T06:54:17.785Z,240
2017-04-23T06:55:17.453Z,255
2017-04-23T06:56:17.757Z,275
2017-04-23T06:57:17.738Z,295
2017-04-23T06:58:17.730Z,300
2017-04-23T06:59:17.098Z,305
2017-04-23T07:00:17.399Z,310
2017-04-23T07:01:17.359Z,310
2017-04-23T07:02:17.354Z,295
2017-04-23T07:03:17.343Z,290
2017-04-23T07:04:17.355Z,285
2017-04-23T07:05:17.621Z,270
2017-04-23T07:06:17.610Z,305
2017-04-23T07:07:17.592Z,280
2017-04-23T07:08:16.635Z,300
2017-04-23T07:09:17.253Z,340
2017-04-23T07:10:17.250Z,350
2017-04-23T19:19:25.300Z,0
2017-04-23T19:20:24.979Z,0
2017-04-23T19:21:24.940Z,0
2017-04-23T19:22:24.919Z,0
2017-04-23T19:23:25.223Z,0
2017-04-23T19:24:24.889Z,0
2017-04-23T19:25:24.870Z,0
2017-04-23T19:26:25.166Z,0
2017-04-23T19:27:25.147Z,0
2017-04-23T19:28:24.828Z,0
2017-04-23T19:29:25.121Z,0
2017-04-23T19:30:24.489Z,0
2017-04-23T19:31:24.461Z,0
2017-04-23T19:32:25.074Z,0
2017-04-23T19:33:24.744Z,0
2017-04-23T19:34:25.049Z,0
2017-04-23T19:35:25.023Z,0
2017-04-23T19:36:24.695Z,0
2017-04-23T19:37:24.996Z,0
2017-04-23T19:38:24.355Z,0
2017-04-23T19:39:24.975Z,0
2017-04-23T19:40:24.322Z,0
2017-04-23T19:41:24.935Z,0
2017-04-23T19:42:24.920Z,0
2017-04-23T19:43:24.595Z,0
2017-04-23T19:44:24.890Z,0
2017-04-23T19:45:23.935Z,0
2017-04-23T19:46:24.546Z,0
2017-04-23T19:47:24.846Z,0
2017-04-23T19:48:24.836Z,0
2017-04-23T19:49:24.503Z,0
2017-04-23T19:50:24.811Z,0
2017-04-23T19:51:24.482Z,0
2017-04-23T19:52:24.464Z,0
2017-04-23T19:53:24.457Z,0
2017-04-23T19:54:24.776Z,0
2017-04-23T19:55:24.423Z,0
2017-04-23T19:56:24.604Z,0
2017-04-23T19:57:24.395Z,0
2017-04-23T19:58:24.387Z,0
2017-04-23T19:59:24.369Z,0
2017-04-23T20:00:24.667Z,0
2017-04-23T20:01:24.650Z,0
2017-04-23T20:02:24.635Z,0
2017-04-23T20:03:24.311Z,0
2017-04-23T20:04:24.610Z,0
2017-04-23T20:05:24.281Z,0
2017-04-23T20:06:24.591Z,0
2017-04-23T20:07:24.565Z,0
2017-04-23T20:08:24.563Z,0
2017-04-23T20:09:24.545Z,0
2017-04-23T20:10:24.207Z,0
2017-04-23T20:11:24.511Z,0
2017-04-23T20:12:24.503Z,0
2017-04-23T20:13:24.485Z,0
2017-04-23T20:14:24.155Z,0
2017-04-23T20:15:24.455Z,0
2017-04-23T20:16:24.442Z,0
2017-04-23T20:17:24.430Z,0
2017-04-23T20:18:24.415Z,0
2017-04-23T20:19:24.085Z,0
2017-04-23T20:20:23.766Z,0
2017-04-23T20:21:24.061Z,0
2017-04-23T20:22:24.353Z,0
2017-04-23T20:23:24.032Z,0
2017-04-23T20:24:24.331Z,0
2017-04-23T20:25:24.316Z,0
2017-04-23T20:26:23.361Z,0
2017-04-23T20:27:23.973Z,0
2017-04-23T20:28:24.278Z,0
2017-04-23T20:29:24.264Z,0
2017-04-23T20:30:24.266Z,0
2017-04-23T20:31:24.234Z,0
2017-04-23T20:32:23.596Z,0
2017-04-23T20:33:23.919Z,0
2017-04-23T20:34:24.190Z,0
2017-04-23T20:35:23.866Z,0
2017-04-23T20:36:24.171Z,0
2017-04-23T20:37:24.160Z,0
2017-04-23T20:38:23.840Z,0
2017-04-23T20:39:23.495Z,0
2017-04-23T20:40:24.108Z,0
2017-04-23T20:41:23.779Z,0
2017-04-23T20:42:23.765Z,0
2017-04-23T20:43:24.071Z,0
2017-04-23T20:44:24.056Z,0
2017-04-23T20:45:23.720Z,0
2017-04-23T20:46:24.029Z,0
2017-04-23T20:47:23.697Z,0
2017-04-23T20:48:23.999Z,0
2017-04-23T20:49:23.982Z,0
2017-04-23T20:50:23.966Z,0
2017-04-23T20:51:23.646Z,0
2017-04-23T20:52:23.948Z,0
2017-04-23T20:53:23.932Z,0
2017-04-23T20:54:23.919Z,0
2017-04-23T20:55:23.903Z,0
2017-04-23T20:56:23.884Z,0
2017-04-23T20:57:23.251Z,0
2017-04-23T20:58:23.864Z,0
2017-04-23T20:59:23.847Z,0
2017-04-23T21:00:23.833Z,0
2017-04-23T21:01:23.503Z,0
2017-04-23T21:02:23.183Z,0
2017-04-23T21:03:23.500Z,0
2017-04-23T21:04:23.780Z,0
2017-04-23T21:05:23.806Z,0
2017-04-23T21:06:23.747Z,0
2017-04-23T21:07:23.420Z,0
2017-04-23T21:08:23.723Z,0
2017-04-23T21:09:23.416Z,0
2017-04-23T21:10:23.380Z,0
2017-04-23T21:11:23.690Z,0
2017-04-23T21:12:23.035Z,0
2017-04-23T21:13:23.674Z,0
2017-04-23T21:14:23.657Z,0
2017-04-23T21:15:23.621Z,0
2017-04-23T21:16:23.302Z,0
2017-04-23T21:17:23.288Z,0
2017-04-23T21:18:23.280Z,0
2017-04-23T21:19:23.576Z,0
2017-04-23T21:20:23.566Z,0
2017-04-23T21:21:23.545Z,0
2017-04-23T21:22:23.214Z,0
2017-04-23T21:23:23.202Z,0
2017-04-23T21:24:23.502Z,0
2017-04-23T21:25:23.195Z,0
2017-04-23T21:26:22.845Z,0
2017-04-23T21:27:23.478Z,0
2017-04-23T21:28:23.465Z,0
2017-04-23T21:29:23.133Z,0
2017-04-23T21:30:23.424Z,0
2017-04-23T21:31:22.785Z,0
2017-04-23T21:32:23.388Z,0
2017-04-23T21:33:23.385Z,0
2017-04-23T21:34:23.363Z,0
2017-04-23T21:35:23.351Z,0
2017-04-23T21:36:23.334Z,0
2017-04-23T21:37:23.013Z,0
2017-04-23T21:38:23.305Z,0
2017-04-23T21:39:22.989Z,0
2017-04-23T21:40:23.284Z,0
2017-04-23T21:41:23.269Z,0
2017-04-23T21:42:22.629Z,0
2017-04-23T21:43:23.240Z,0
2017-04-23T21:44:23.253Z,0
2017-04-23T21:45:23.210Z,0
2017-04-23T21:46:22.882Z,0
2017-04-23T21:47:22.554Z,0
2017-04-23T21:48:22.875Z,0
2017-04-23T21:49:23.170Z,0
2017-04-23T21:50:22.830Z,0
2017-04-23T21:51:22.813Z,0
2017-04-23T21:52:23.114Z,0
2017-04-23T21:53:23.103Z,0
2017-04-23T21:54:23.095Z,0
2017-04-23T21:55:22.443Z,0
2017-04-23T21:56:22.745Z,0
2017-04-23T21:57:23.045Z,0
2017-04-23T21:58:23.030Z,0
2017-04-23T21:59:22.705Z,0
2017-04-23T22:00:22.711Z,0
2017-04-23T22:01:22.989Z,0
2017-04-23T22:02:22.978Z,0
2017-04-23T22:03:22.645Z,0
2017-04-23T22:04:22.664Z,0
2017-04-23T22:05:22.955Z,0
2017-04-23T22:06:22.924Z,0
2017-04-23T22:07:22.275Z,0
2017-04-23T22:08:22.574Z,0
2017-04-23T22:09:22.562Z,0
2017-04-23T22:10:22.548Z,0
2017-04-23T22:11:22.546Z,0
2017-04-23T22:12:22.838Z,0
2017-04-23T22:13:22.818Z,0
2017-04-23T22:14:22.495Z,0
2017-04-23T22:15:22.789Z,0
2017-04-23T22:16:22.466Z,0
2017-04-23T22:17:22.450Z,0
2017-04-23T22:18:22.435Z,0
2017-04-23T22:19:22.743Z,0
2017-04-23T22:20:22.406Z,0
2017-04-23T22:21:22.399Z,0
2017-04-23T22:22:22.378Z,0
2017-04-23T22:23:22.399Z,0
2017-04-23T22:24:22.032Z,0
2017-04-23T22:25:22.650Z,0
2017-04-23T22:26:22.320Z,0
2017-04-23T22:27:22.313Z,0
2017-04-23T22:28:22.609Z,0
2017-04-23T22:29:22.597Z,0
2017-04-23T22:30:22.577Z,0
2017-04-23T22:31:22.245Z,0
2017-04-23T22:32:22.576Z,0
2017-04-23T22:33:22.228Z,0
2017-04-23T22:34:22.219Z,0
2017-04-23T22:35:22.195Z,0
2017-04-23T22:36:22.174Z,0
2017-04-23T22:37:22.476Z,0
2017-04-23T22:38:21.836Z,0
2017-04-23T22:39:22.133Z,0
2017-04-23T22:40:22.116Z,0
2017-04-23T22:41:22.417Z,0
2017-04-23T22:42:21.459Z,0
2017-04-23T22:43:22.075Z,0
2017-04-23T22:44:21.748Z,0
2017-04-23T22:45:22.043Z,0
2017-04-23T22:46:22.043Z,0
2017-04-23T22:47:22.018Z,0
2017-04-23T22:48:22.347Z,0
2017-04-23T22:49:22.309Z,0
2017-04-23T22:50:21.656Z,0
2017-04-23T22:51:22.267Z,0
2017-04-23T22:52:21.941Z,0
2017-04-23T22:53:21.613Z,0
2017-04-23T22:54:21.605Z,0
2017-04-23T22:55:21.891Z,0
2017-04-23T22:56:21.883Z,0
2017-04-23T22:57:22.179Z,0
2017-04-23T22:58:22.164Z,0
2017-04-23T22:59:21.838Z,0
2017-04-23T23:00:22.134Z,0
2017-04-23T23:01:21.488Z,0
2017-04-23T23:02:21.794Z,0
2017-04-23T23:03:21.783Z,0
2017-04-23T23:04:22.076Z,0
2017-04-23T23:05:21.763Z,0
2017-04-23T23:06:22.044Z,0
2017-04-23T23:07:21.716Z,0
2017-04-23T23:08:21.710Z,0
2017-04-23T23:09:21.994Z,0
2017-04-23T23:10:21.983Z,0
2017-04-23T23:11:21.656Z,0
2017-04-23T23:12:21.323Z,0
2017-04-23T23:13:21.621Z,0
2017-04-23T23:14:21.940Z,0
2017-04-23T23:15:21.906Z,0
2017-04-23T23:16:21.896Z,0
2017-04-23T23:17:21.574Z,0
2017-04-23T23:18:21.865Z,0
2017-04-23T23:19:20.903Z,0
2017-04-23T23:20:21.827Z,0
2017-04-23T23:21:21.508Z,0
2017-04-23T23:22:21.174Z,0
2017-04-23T23:23:21.468Z,0
2017-04-23T23:24:21.778Z,0
2017-04-23T23:25:21.759Z,0
2017-04-23T23:26:21.746Z,0
2017-04-23T23:27:21.417Z,0
2017-04-23T23:28:21.412Z,0
2017-04-23T23:29:21.710Z,0
2017-04-23T23:30:21.075Z,0
2017-04-23T23:31:21.386Z,0
2017-04-23T23:32:21.023Z,0
2017-04-23T23:33:21.643Z,0
2017-04-23T23:34:20.993Z,0
2017-04-23T23:35:21.603Z,0
2017-04-23T23:36:20.653Z,0
2017-04-23T23:37:21.263Z,0
2017-04-23T23:38:21.576Z,0
2017-04-23T23:39:21.556Z,0
2017-04-23T23:40:21.227Z,0
2017-04-23T23:41:20.575Z,0
2017-04-23T23:42:21.190Z,0
2017-04-23T23:43:21.190Z,0
2017-04-23T23:44:21.173Z,0
2017-04-23T23:45:21.148Z,0
2017-04-23T23:46:21.451Z,0
2017-04-23T23:47:21.435Z,0
2017-04-23T23:48:21.104Z,0
2017-04-23T23:49:21.408Z,0
2017-04-23T23:50:21.391Z,0
2017-04-23T23:51:21.380Z,0
2017-04-23T23:52:21.046Z,0
2017-04-23T23:53:21.350Z,0
2017-04-23T23:54:21.331Z,0
2017-04-23T23:55:21.317Z,0
2017-04-23T23:56:20.675Z,0
2017-04-23T23:57:20.978Z,0
2017-04-23T23:58:20.964Z,0
2017-04-23T23:59:20.639Z,0
